Time,TemperatureF,DewpointF,PressureIn,WindDirection,WindDirectionDegrees,WindSpeedMPH,WindSpeedGustMPH,Humidity,HourlyPrecipIn,Conditions,Clouds,dailyrainin,SoftwareType,DateUTC
2013-01-16 00:00:00,8.0,7.0,-100.00,North,354,15.0,20.0,92,-99.99,,,-99.99,,2013-01-16 07:00:00,
2013-01-16 00:42:00,8.0,7.0,-100.00,North,354,15.0,20.0,92,-99.99,,,-99.99,,2013-01-16 07:42:00,
2013-01-16 00:52:00,8.0,7.0,-100.00,North,354,15.0,20.0,92,-99.99,,,-99.99,,2013-01-16 07:52:00,
2013-01-16 01:00:00,9.0,7.0,-100.00,North,354,15.0,18.0,92,-99.99,,,-99.99,,2013-01-16 08:00:00,
2013-01-16 01:42:00,9.0,7.0,-100.00,North,354,15.0,18.0,92,-99.99,,,-99.99,,2013-01-16 08:42:00,
2013-01-16 01:52:00,9.0,7.0,-100.00,North,354,15.0,18.0,92,-99.99,,,-99.99,,2013-01-16 08:52:00,
2013-01-16 02:00:00,10.0,8.0,-100.00,North,356,15.0,20.0,93,-99.99,,,-99.99,,2013-01-16 09:00:00,
2013-01-16 02:43:00,10.0,8.0,-100.00,North,356,15.0,20.0,93,-99.99,,,-99.99,,2013-01-16 09:43:00,
2013-01-16 02:53:00,10.0,8.0,-100.00,North,356,15.0,20.0,93,-99.99,,,-99.99,,2013-01-16 09:53:00,
2013-01-16 03:00:00,13.0,12.0,-100.00,North,7,16.0,26.0,94,-99.99,,,-99.99,,2013-01-16 10:00:00,
2013-01-16 03:43:00,13.0,12.0,-100.00,North,7,16.0,26.0,94,-99.99,,,-99.99,,2013-01-16 10:43:00,
2013-01-16 03:53:00,13.0,12.0,-100.00,North,7,16.0,26.0,94,-99.99,,,-99.99,,2013-01-16 10:53:00,
2013-01-16 04:00:00,15.0,13.0,-100.00,North,358,13.0,20.0,93,-99.99,,,-99.99,,2013-01-16 11:00:00,
2013-01-16 04:43:00,15.0,13.0,-100.00,North,358,13.0,20.0,93,-99.99,,,-99.99,,2013-01-16 11:43:00,
2013-01-16 04:53:00,15.0,13.0,-100.00,North,358,13.0,20.0,93,-99.99,,,-99.99,,2013-01-16 11:53:00,
2013-01-16 05:00:00,16.0,13.0,-100.00,North,354,15.0,21.0,87,-99.99,,,-99.99,,2013-01-16 12:00:00,
2013-01-16 05:43:00,16.0,13.0,-100.00,North,354,15.0,21.0,87,-99.99,,,-99.99,,2013-01-16 12:43:00,
2013-01-16 05:53:00,16.0,13.0,-100.00,North,354,15.0,21.0,87,-99.99,,,-99.99,,2013-01-16 12:53:00,
2013-01-16 06:00:00,17.0,11.0,-100.00,North,352,20.0,25.0,76,-99.99,,,-99.99,,2013-01-16 13:00:00,
2013-01-16 06:43:00,17.0,11.0,-100.00,North,352,20.0,25.0,76,-99.99,,,-99.99,,2013-01-16 13:43:00,
2013-01-16 06:53:00,17.0,11.0,-100.00,North,352,20.0,25.0,76,-99.99,,,-99.99,,2013-01-16 13:53:00,
2013-01-16 07:00:00,18.0,12.0,-100.00,North,355,22.0,25.0,76,-99.99,,,-99.99,,2013-01-16 14:00:00,
2013-01-16 07:43:00,18.0,12.0,-100.00,North,355,22.0,25.0,76,-99.99,,,-99.99,,2013-01-16 14:43:00,
2013-01-16 07:53:00,18.0,12.0,-100.00,North,355,22.0,25.0,76,-99.99,,,-99.99,,2013-01-16 14:53:00,
2013-01-16 08:00:00,18.0,12.0,-100.00,North,354,26.0,30.0,74,-99.99,,,-99.99,,2013-01-16 15:00:00,
2013-01-16 08:43:00,18.0,12.0,-100.00,North,354,26.0,30.0,74,-99.99,,,-99.99,,2013-01-16 15:43:00,
2013-01-16 08:53:00,18.0,12.0,-100.00,North,354,26.0,30.0,74,-99.99,,,-99.99,,2013-01-16 15:53:00,
2013-01-16 09:00:00,18.0,12.0,-100.00,North,350,25.0,30.0,77,-99.99,,,-99.99,,2013-01-16 16:00:00,
2013-01-16 09:43:00,18.0,12.0,-100.00,North,350,25.0,30.0,77,-99.99,,,-99.99,,2013-01-16 16:43:00,
2013-01-16 09:53:00,18.0,12.0,-100.00,North,350,25.0,30.0,77,-99.99,,,-99.99,,2013-01-16 16:53:00,
2013-01-16 10:00:00,18.0,12.0,-100.00,North,350,19.0,26.0,77,-99.99,,,-99.99,,2013-01-16 17:00:00,
2013-01-16 10:44:00,18.0,12.0,-100.00,North,350,19.0,26.0,77,-99.99,,,-99.99,,2013-01-16 17:44:00,
2013-01-16 10:53:00,18.0,12.0,-100.00,North,350,19.0,26.0,77,-99.99,,,-99.99,,2013-01-16 17:53:00,
2013-01-16 11:00:00,18.0,12.0,-100.00,North,2,15.0,19.0,74,-99.99,,,-99.99,,2013-01-16 18:00:00,
2013-01-16 11:43:00,18.0,12.0,-100.00,North,2,15.0,19.0,74,-99.99,,,-99.99,,2013-01-16 18:43:00,
2013-01-16 11:53:00,18.0,12.0,-100.00,North,2,15.0,19.0,74,-99.99,,,-99.99,,2013-01-16 18:53:00,
2013-01-16 12:43:00,19.0,12.0,-100.00,North,6,14.0,16.0,72,-99.99,,,-99.99,,2013-01-16 19:43:00,
2013-01-16 12:53:00,19.0,12.0,-100.00,North,6,14.0,16.0,72,-99.99,,,-99.99,,2013-01-16 19:53:00,
2013-01-16 13:00:00,20.0,12.0,-100.00,NNE,16,14.0,18.0,72,-99.99,,,-99.99,,2013-01-16 20:00:00,
2013-01-16 13:43:00,20.0,12.0,-100.00,NNE,16,14.0,18.0,72,-99.99,,,-99.99,,2013-01-16 20:43:00,
2013-01-16 13:53:00,20.0,12.0,-100.00,NNE,16,14.0,18.0,72,-99.99,,,-99.99,,2013-01-16 20:53:00,
2013-01-16 14:00:00,23.0,11.0,-100.00,NNE,16,9.0,15.0,61,-99.99,,,-99.99,,2013-01-16 21:00:00,
2013-01-16 14:43:00,23.0,11.0,-100.00,NNE,16,9.0,15.0,61,-99.99,,,-99.99,,2013-01-16 21:43:00,
2013-01-16 14:53:00,23.0,11.0,-100.00,NNE,16,9.0,15.0,61,-99.99,,,-99.99,,2013-01-16 21:53:00,
2013-01-16 15:00:00,25.0,10.0,-100.00,North,8,6.0,13.0,52,-99.99,,,-99.99,,2013-01-16 22:00:00,
2013-01-16 15:43:00,25.0,10.0,-100.00,North,8,6.0,13.0,52,-99.99,,,-99.99,,2013-01-16 22:43:00,
2013-01-16 15:52:00,25.0,10.0,-100.00,North,8,6.0,13.0,52,-99.99,,,-99.99,,2013-01-16 22:52:00,
2013-01-16 16:00:00,25.0,10.0,-100.00,North,7,7.0,12.0,52,-99.99,,,-99.99,,2013-01-16 23:00:00,
2013-01-16 16:43:00,25.0,10.0,-100.00,North,7,7.0,12.0,52,-99.99,,,-99.99,,2013-01-16 23:43:00,
2013-01-16 16:53:00,25.0,10.0,-100.00,North,7,7.0,12.0,52,-99.99,,,-99.99,,2013-01-16 23:53:00,
2013-01-16 17:00:00,25.0,10.0,-100.00,North,352,11.0,15.0,53,-99.99,,,-99.99,,2013-01-17 00:00:00,
2013-01-16 17:42:00,25.0,10.0,-100.00,North,352,11.0,15.0,53,-99.99,,,-99.99,,2013-01-17 00:42:00,
2013-01-16 17:52:00,25.0,10.0,-100.00,North,352,11.0,15.0,53,-99.99,,,-99.99,,2013-01-17 00:52:00,
2013-01-16 18:00:00,23.0,9.0,-100.00,North,4,13.0,16.0,56,-99.99,,,-99.99,,2013-01-17 01:00:00,
2013-01-16 18:43:00,23.0,9.0,-100.00,North,4,13.0,16.0,56,-99.99,,,-99.99,,2013-01-17 01:43:00,
2013-01-16 18:52:00,23.0,9.0,-100.00,North,4,13.0,16.0,56,-99.99,,,-99.99,,2013-01-17 01:52:00,
2013-01-16 19:00:00,23.0,8.0,-100.00,North,9,12.0,17.0,53,-99.99,,,-99.99,,2013-01-17 02:00:00,
2013-01-16 20:00:00,23.0,8.0,-100.00,North,357,14.0,20.0,52,-99.99,,,-99.99,,2013-01-17 03:00:00,
2013-01-16 20:43:00,23.0,8.0,-100.00,North,357,14.0,20.0,52,-99.99,,,-99.99,,2013-01-17 03:43:00,
2013-01-16 20:52:00,23.0,8.0,-100.00,North,357,14.0,20.0,52,-99.99,,,-99.99,,2013-01-17 03:52:00,
2013-01-16 21:00:00,22.0,9.0,-100.00,North,353,15.0,20.0,55,-99.99,,,-99.99,,2013-01-17 04:00:00,
2013-01-16 21:43:00,22.0,9.0,-100.00,North,353,15.0,20.0,55,-99.99,,,-99.99,,2013-01-17 04:43:00,
2013-01-16 21:52:00,22.0,9.0,-100.00,North,353,15.0,20.0,55,-99.99,,,-99.99,,2013-01-17 04:52:00,
2013-01-16 22:00:00,22.0,8.0,-100.00,North,5,9.0,15.0,56,-99.99,,,-99.99,,2013-01-17 05:00:00,
2013-01-16 22:43:00,22.0,8.0,-100.00,North,5,9.0,15.0,56,-99.99,,,-99.99,,2013-01-17 05:43:00,
2013-01-16 22:53:00,22.0,8.0,-100.00,North,5,9.0,15.0,56,-99.99,,,-99.99,,2013-01-17 05:53:00,
2013-01-16 23:00:00,22.0,8.0,-100.00,NNE,13,8.0,11.0,53,-99.99,,,-99.99,,2013-01-17 06:00:00,
2013-01-16 23:42:00,22.0,8.0,-100.00,NNE,13,8.0,11.0,53,-99.99,,,-99.99,,2013-01-17 06:42:00,
2013-01-16 23:52:00,22.0,8.0,-100.00,NNE,13,8.0,11.0,53,-99.99,,,-99.99,,2013-01-17 06:52:00,